Time;durP1;ratioP1;P1;durP2;ratioP2;P2;SDS_P1;SDS_P2;PMS_P1;PMS_P2;Temp;Humidity;BMP_temperature;BMP_pressure;BME280_temperature;BME280_humidity;BME280_pressure;Samples;Min_cycle;Max_cycle;Signal;HPM_P1;HPM_P2
2022/01/16 00:00:25;;;;;;;156.10;70.20;;;;;;;-3.41;86.42;99606.13;219512;1271;22670;-70
2022/01/16 00:05:39;;;;;;;161.80;70.70;;;;;;;-3.44;86.28;99612.41;219569;1271;24257;-68
2022/01/16 00:10:50;;;;;;;151.90;61.20;;;;;;;-3.48;86.28;99603.23;219639;1271;23108;-69
2022/01/16 00:15:58;;;;;;;152.90;63.70;;;;;;;-3.55;86.09;99599.23;219598;1271;22625;-68
2022/01/16 00:21:01;;;;;;;163.20;70.50;;;;;;;-3.63;85.76;99593.82;219711;1270;24253;-68
2022/01/16 00:26:09;;;;;;;197.10;82.40;;;;;;;-3.71;85.81;99576.89;219676;1271;24282;-70
2022/01/16 00:31:12;;;;;;;185.20;82.10;;;;;;;-3.74;86.08;99587.52;219869;1270;22758;-70
2022/01/16 00:36:17;;;;;;;208.00;90.10;;;;;;;-3.78;85.95;99572.10;220757;1270;22679;-71
2022/01/16 00:41:26;;;;;;;177.70;79.40;;;;;;;-3.85;85.73;99528.27;219752;1270;26396;-71
2022/01/16 00:46:35;;;;;;;171.70;76.10;;;;;;;-4.01;85.40;99553.08;219770;1270;24362;-69
2022/01/16 00:51:47;;;;;;;160.90;72.90;;;;;;;-4.18;85.16;99565.76;219865;1271;24274;-71
2022/01/16 00:57:11;;;;;;;182.80;80.20;;;;;;;-4.25;85.71;99566.03;219830;1271;25549;-69
2022/01/16 01:02:17;;;;;;;192.50;82.10;;;;;;;-4.25;85.83;99540.28;219799;1271;24351;-71
2022/01/16 01:07:25;;;;;;;223.10;90.30;;;;;;;-4.27;86.00;99552.05;219849;1270;22642;-69
2022/01/16 01:13:10;;;;;;;204.80;84.80;;;;;;;-4.28;86.45;99540.73;219440;1271;24826;-69
2022/01/16 01:18:35;;;;;;;188.40;78.20;;;;;;;-4.27;86.47;99518.72;219756;1271;25463;-69
2022/01/16 01:23:47;;;;;;;203.60;80.80;;;;;;;-4.26;86.55;99522.45;219675;1271;22550;-70
2022/01/16 01:28:58;;;;;;;184.70;76.10;;;;;;;-4.21;86.75;99529.73;219960;1271;25718;-70
2022/01/16 01:34:11;;;;;;;192.60;78.00;;;;;;;-4.20;86.76;99525.90;219854;1271;23791;-70
2022/01/16 01:39:31;;;;;;;193.30;76.60;;;;;;;-4.15;86.84;99433.07;219590;1271;22698;-70
2022/01/16 01:55:43;;;;;;;160.00;67.70;;;;;;;-4.05;87.10;99444.63;219616;1271;25650;-70
2022/01/16 02:00:48;;;;;;;153.90;63.60;;;;;;;-3.99;87.33;99452.17;219435;1271;22756;-70
2022/01/16 02:06:00;;;;;;;144.90;62.40;;;;;;;-3.95;87.54;99442.73;219856;1271;22627;-69
2022/01/16 02:11:12;;;;;;;150.70;60.90;;;;;;;-3.90;87.51;99442.89;219602;1271;25577;-69
2022/01/16 02:38:28;;;;;;;191.60;83.30;;;;;;;-4.24;86.25;99473.16;219641;1271;23379;-69
2022/01/16 02:43:32;;;;;;;210.10;91.70;;;;;;;-4.37;85.79;99477.62;219369;1271;25364;-67
2022/01/16 02:50:01;;;;;;;208.40;85.90;;;;;;;-4.43;86.11;99462.23;219644;1270;22931;-72
2022/01/16 02:55:30;;;;;;;195.70;83.20;;;;;;;-4.41;86.43;99458.83;219964;1271;23341;-70
2022/01/16 03:00:41;;;;;;;187.60;76.00;;;;;;;-4.35;86.74;99462.33;219807;1271;24122;-70
2022/01/16 03:05:57;;;;;;;219.00;90.90;;;;;;;-4.30;86.77;99461.42;219948;1271;22658;-70
2022/01/16 03:11:21;;;;;;;238.10;97.90;;;;;;;-4.30;86.55;99450.08;220468;1270;25864;-69
2022/01/16 03:16:28;;;;;;;246.20;97.20;;;;;;;-4.28;86.72;99439.77;219655;1271;22692;-71
2022/01/16 03:21:54;;;;;;;220.00;92.30;;;;;;;-4.23;86.95;99426.82;219706;1271;22709;-70
2022/01/16 03:27:00;;;;;;;215.70;88.70;;;;;;;-4.21;86.64;99423.84;219821;1271;22636;-70
2022/01/16 03:32:05;;;;;;;192.60;79.70;;;;;;;-4.22;86.64;99420.11;219672;1271;22675;-69
2022/01/16 03:37:12;;;;;;;169.10;73.60;;;;;;;-4.21;86.77;99416.86;219761;1270;26728;-70
2022/01/16 03:42:24;;;;;;;160.60;68.50;;;;;;;-4.19;86.77;99408.08;219725;1271;26845;-70
2022/01/16 03:47:29;;;;;;;151.90;63.70;;;;;;;-4.17;86.78;99401.39;220042;1271;24052;-70
2022/01/16 03:52:56;;;;;;;;;;;;;;;;;;;;;
2022/01/16 03:58:19;;;;;;;127.70;54.20;;;;;;;-4.16;86.72;99379.36;219941;1271;22690;-70
2022/01/16 04:03:24;;;;;;;125.00;52.80;;;;;;;-4.13;86.77;99383.30;219434;1271;22686;-71
2022/01/16 04:08:37;;;;;;;123.10;50.30;;;;;;;-4.11;86.73;99378.14;219625;1271;22733;-70
2022/01/16 04:13:51;;;;;;;120.20;50.60;;;;;;;-4.10;86.72;99372.08;219800;1270;22618;-70
2022/01/16 04:18:54;;;;;;;113.30;50.20;;;;;;;-4.09;86.62;99370.27;219798;1271;22659;-70
2022/01/16 04:24:00;;;;;;;113.60;48.30;;;;;;;-4.08;86.71;99368.09;219491;1271;22630;-69
2022/01/16 04:29:08;;;;;;;117.70;49.60;;;;;;;-4.09;86.71;99365.89;219435;1268;25857;-69
2022/01/16 04:34:12;;;;;;;109.20;46.90;;;;;;;-4.09;86.70;99366.81;219596;1271;22674;-70
2022/01/16 04:39:18;;;;;;;103.00;45.40;;;;;;;-4.08;86.81;99360.18;219820;1271;22933;-70
2022/01/16 04:44:20;;;;;;;95.10;42.40;;;;;;;-4.08;86.71;99353.52;219682;1271;23127;-70
2022/01/16 04:49:23;;;;;;;91.30;40.00;;;;;;;-4.07;86.70;99346.31;219750;1271;25762;-70
2022/01/16 04:54:25;;;;;;;90.50;39.70;;;;;;;-4.08;86.64;99335.96;219610;1271;25573;-70
2022/01/16 04:59:33;;;;;;;77.00;37.20;;;;;;;-4.09;86.56;99322.33;219771;1271;22545;-69
2022/01/16 05:04:44;;;;;;;88.50;38.80;;;;;;;-4.10;86.59;99312.64;219810;1271;24326;-70
2022/01/16 05:09:53;;;;;;;80.00;35.20;;;;;;;-4.08;86.68;99299.87;219624;1271;26228;-69
2022/01/16 05:20:20;;;;;;;70.60;30.30;;;;;;;-4.02;86.98;99291.23;219591;1271;24424;-69
2022/01/16 05:25:22;;;;;;;67.70;29.40;;;;;;;-4.00;86.89;99284.21;219899;1271;22685;-69
2022/01/16 05:30:27;;;;;;;67.60;32.00;;;;;;;-4.00;86.89;99280.77;220167;1270;22677;-70
2022/01/16 05:35:30;;;;;;;73.50;32.40;;;;;;;-4.01;86.84;99276.86;219920;1271;22697;-70
2022/01/16 05:40:32;;;;;;;75.90;32.80;;;;;;;-4.05;86.88;99264.77;220828;1271;22706;-69
2022/01/16 05:45:49;;;;;;;77.30;33.90;;;;;;;-4.11;86.60;99254.83;219848;1270;22715;-69
2022/01/16 05:51:08;;;;;;;73.20;32.20;;;;;;;-4.18;86.61;99256.55;220978;1270;22654;-69
2022/01/16 05:56:12;;;;;;;63.40;29.00;;;;;;;-4.23;86.91;99250.77;220075;1270;25740;-69
2022/01/16 06:01:29;;;;;;;60.00;28.10;;;;;;;-4.22;87.24;99252.66;219945;1271;22739;-71
2022/01/16 06:06:46;;;;;;;57.20;24.10;;;;;;;-4.17;87.39;99237.45;221059;1271;24249;-69
2022/01/16 06:11:59;;;;;;;53.60;24.30;;;;;;;-4.12;87.55;99233.60;219911;1271;22728;-69
2022/01/16 06:17:22;;;;;;;44.20;19.00;;;;;;;-4.04;88.02;99229.91;219825;1271;22657;-70
2022/01/16 06:22:24;;;;;;;44.00;20.00;;;;;;;-3.98;87.72;99231.61;219851;1271;26926;-69
2022/01/16 06:27:26;;;;;;;45.30;19.70;;;;;;;-3.93;87.91;99228.80;219668;1271;24201;-69
2022/01/16 06:32:33;;;;;;;37.00;19.10;;;;;;;-3.89;87.79;99219.60;220137;1271;26123;-69
2022/01/16 06:37:35;;;;;;;40.90;20.00;;;;;;;-3.86;87.76;99215.11;219687;1271;22639;-70
2022/01/16 06:42:44;;;;;;;37.90;18.50;;;;;;;-3.82;87.80;99214.20;219889;1271;22740;-70
2022/01/16 06:47:47;;;;;;;42.70;18.70;;;;;;;-3.78;87.93;99207.44;219575;1272;22644;-69
2022/01/16 06:52:52;;;;;;;36.90;17.30;;;;;;;-3.72;87.94;99210.23;220039;1271;26831;-70
2022/01/16 06:57:58;;;;;;;36.40;17.20;;;;;;;-3.65;87.85;99212.24;219438;1271;24331;-69
2022/01/16 07:03:00;;;;;;;34.70;16.80;;;;;;;-3.59;87.82;99213.08;219383;1271;22563;-69
2022/01/16 07:08:02;;;;;;;36.90;17.70;;;;;;;-3.51;87.75;99209.89;219474;1271;25402;-69
2022/01/16 07:13:07;;;;;;;35.80;15.40;;;;;;;-3.44;87.92;99211.25;219659;1271;26013;-70
2022/01/16 07:18:12;;;;;;;30.50;15.50;;;;;;;-3.36;87.76;99198.57;219506;1271;22677;-71
2022/01/16 07:23:18;;;;;;;29.50;15.40;;;;;;;-3.28;87.84;99194.08;219880;1270;24145;-68
2022/01/16 07:28:24;;;;;;;32.00;15.30;;;;;;;-3.14;88.07;99196.66;219669;1271;24287;-68
2022/01/16 07:33:26;;;;;;;31.50;15.00;;;;;;;-3.00;87.96;99195.36;219375;1271;22569;-68
2022/01/16 07:38:29;;;;;;;38.10;16.60;;;;;;;-2.86;88.02;99200.06;219416;1271;22643;-69
2022/01/16 07:43:31;;;;;;;31.70;14.40;;;;;;;-2.75;87.96;99202.13;219889;1271;22584;-69
2022/01/16 07:48:51;;;;;;;25.00;11.80;;;;;;;-2.55;88.18;99199.67;219716;1271;22570;-69
2022/01/16 07:53:55;;;;;;;24.60;11.60;;;;;;;-2.29;88.27;99191.02;219723;1271;22866;-69
2022/01/16 07:59:01;;;;;;;26.30;11.70;;;;;;;-2.13;87.88;99191.10;219739;1271;25622;-70
2022/01/16 08:04:03;;;;;;;22.90;12.70;;;;;;;-1.85;88.13;99194.03;220674;1271;25602;-70
2022/01/16 08:09:15;;;;;;;19.10;10.40;;;;;;;-1.60;87.33;99191.85;219538;1269;25644;-70
2022/01/16 08:14:38;;;;;;;21.80;10.50;;;;;;;-1.51;86.73;99184.72;219287;1271;22555;-70
2022/01/16 08:19:47;;;;;;;21.00;9.70;;;;;;;-1.43;86.45;99182.10;217068;1271;3626033;-69
2022/01/16 08:25:13;;;;;;;25.10;11.50;;;;;;;-1.33;86.48;99175.23;219859;1271;24353;-67
2022/01/16 08:30:22;;;;;;;20.10;9.90;;;;;;;-1.21;86.03;99166.87;219711;1271;22627;-70
2022/01/16 08:41:27;;;;;;;24.40;11.00;;;;;;;-0.64;86.15;99152.10;219772;1271;22731;-69
2022/01/16 08:46:33;;;;;;;21.10;10.70;;;;;;;-0.44;85.35;99139.30;219699;1270;24241;-70
2022/01/16 08:51:35;;;;;;;23.60;10.30;;;;;;;-0.35;84.38;99128.20;219724;1271;24441;-69
2022/01/16 08:56:41;;;;;;;21.30;9.80;;;;;;;-0.26;84.22;99115.14;219878;1271;22805;-70
2022/01/16 09:01:46;;;;;;;24.30;9.70;;;;;;;-0.12;83.96;99109.12;219698;1271;22564;-70
2022/01/16 09:06:58;;;;;;;22.60;8.80;;;;;;;0.08;83.80;99105.16;219874;1271;22560;-70
2022/01/16 09:12:24;;;;;;;;;;;;;;;;;;;;;
2022/01/16 09:17:30;;;;;;;19.90;8.40;;;;;;;0.40;81.87;99089.02;219916;1269;22549;-70
2022/01/16 09:22:58;;;;;;;17.40;8.10;;;;;;;0.56;81.77;99078.41;220940;1271;24254;-70
2022/01/16 09:28:11;;;;;;;22.10;8.00;;;;;;;0.76;81.45;99075.16;220298;1271;22535;-70
2022/01/16 09:33:40;;;;;;;16.70;7.80;;;;;;;0.96;80.61;99065.35;219994;1271;22914;-70
2022/01/16 09:38:41;;;;;;;14.90;7.40;;;;;;;1.16;80.09;99067.02;219727;1271;22576;-69
2022/01/16 09:44:03;;;;;;;15.20;7.00;;;;;;;1.34;79.17;99062.80;220023;1271;25260;-70
2022/01/16 09:49:32;;;;;;;16.30;6.70;;;;;;;1.53;79.53;99069.13;219873;1271;24234;-70
2022/01/16 09:54:37;;;;;;;19.20;8.00;;;;;;;1.72;77.87;99064.10;220275;1271;22574;-70
2022/01/16 09:59:40;;;;;;;18.80;6.70;;;;;;;1.82;77.66;99059.95;220012;1271;22566;-70
2022/01/16 10:04:46;;;;;;;18.60;8.10;;;;;;;1.86;76.39;99058.10;219659;1271;22693;-69
2022/01/16 10:10:15;;;;;;;19.00;6.80;;;;;;;1.90;76.37;99047.73;220621;1270;22559;-69
2022/01/16 10:15:28;;;;;;;12.70;6.50;;;;;;;1.96;73.43;99041.75;220395;1271;22564;-70
2022/01/16 10:20:46;;;;;;;12.90;6.00;;;;;;;2.04;70.33;99031.70;219622;1271;23075;-69
2022/01/16 10:25:52;;;;;;;14.90;5.90;;;;;;;2.15;69.15;99024.72;219955;1271;22888;-69
2022/01/16 10:31:07;;;;;;;15.10;6.30;;;;;;;2.27;68.91;99016.29;219899;1271;22505;-69
2022/01/16 10:36:11;;;;;;;11.00;6.00;;;;;;;2.39;69.68;99012.98;220111;1271;24277;-70
2022/01/16 10:41:14;;;;;;;12.10;5.30;;;;;;;2.52;66.85;99015.91;219855;1271;22577;-69
2022/01/16 10:46:25;;;;;;;14.80;6.00;;;;;;;2.60;67.43;99020.34;219866;1271;22641;-70
2022/01/16 10:52:15;;;;;;;11.10;5.20;;;;;;;2.65;67.62;99018.74;220024;1271;22562;-70
2022/01/16 10:57:27;;;;;;;15.10;6.20;;;;;;;2.67;67.38;99003.50;219933;1271;22543;-69
2022/01/16 11:02:48;;;;;;;9.60;5.60;;;;;;;2.81;67.93;98993.71;219942;1271;26354;-70
2022/01/16 11:08:34;;;;;;;13.50;6.40;;;;;;;2.99;66.34;98987.36;219775;1271;25319;-69
2022/01/16 11:13:54;;;;;;;9.80;5.00;;;;;;;3.13;66.82;98989.08;219285;1271;24239;-70
2022/01/16 11:25:22;;;;;;;11.30;5.50;;;;;;;3.40;66.54;98972.66;219785;1271;22543;-69
2022/01/16 11:31:03;;;;;;;12.50;6.50;;;;;;;3.57;67.68;98966.88;219210;1271;23488;-70
2022/01/16 11:36:40;;;;;;;13.80;7.40;;;;;;;3.60;66.20;98967.50;219825;1270;25431;-70
2022/01/16 11:42:51;;;;;;;13.00;6.00;;;;;;;3.50;67.02;98964.63;219241;1271;25267;-70
2022/01/16 11:48:55;;;;;;;11.40;6.00;;;;;;;3.52;66.93;98953.33;219859;1271;24781;-70
2022/01/16 12:09:14;;;;;;;11.60;6.20;;;;;;;3.42;65.74;98953.20;218679;1277;22574;-70
2022/01/16 12:22:58;;;;;;;13.40;7.20;;;;;;;3.47;67.35;98935.48;220379;1271;22618;-70
2022/01/16 12:37:14;;;;;;;17.00;7.90;;;;;;;3.37;67.36;98932.98;219997;1270;22666;-68
2022/01/16 12:49:47;;;;;;;15.60;8.10;;;;;;;3.21;67.63;98926.80;219885;1271;22538;-68
2022/01/16 13:03:02;;;;;;;;;;;;;;;;;;;;;
2022/01/16 13:08:23;;;;;;;13.40;7.00;;;;;;;3.11;67.86;98890.58;219804;1271;24237;-70
2022/01/16 13:13:58;;;;;;;;;;;;;;;;;;;;;
2022/01/16 13:19:37;;;;;;;;;;;;;;;;;;;;;
2022/01/16 13:25:14;;;;;;;;;;;;;;;;;;;;;
2022/01/16 13:31:10;;;;;;;;;;;;;;;2.98;67.76;98856.40;219750;1271;22543;-69
2022/01/16 13:36:32;;;;;;;;;;;;;;;;;;;;;
2022/01/16 13:41:58;;;;;;;17.10;8.60;;;;;;;2.91;68.02;98841.20;220078;1270;22560;-69
2022/01/16 13:53:55;;;;;;;17.20;7.50;;;;;;;2.98;68.36;98813.48;220046;1271;22651;-70
2022/01/16 13:59:51;;;;;;;13.20;8.00;;;;;;;3.04;68.24;98808.33;219917;1270;22655;-69
2022/01/16 14:05:32;;;;;;;;;;;;;;;3.04;68.07;98801.98;220003;1271;22534;-70
2022/01/16 14:10:48;;;;;;;15.60;7.40;;;;;;;3.03;68.21;98792.85;220177;1271;22921;-70
2022/01/16 14:16:43;;;;;;;15.20;7.70;;;;;;;2.97;67.97;98788.63;219980;1271;22542;-69
2022/01/16 14:22:24;;;;;;;14.70;6.90;;;;;;;2.87;68.14;98783.27;220163;1270;25372;-69
2022/01/16 14:27:45;;;;;;;13.20;7.50;;;;;;;2.77;68.21;98790.97;220167;1270;23933;-70
2022/01/16 14:33:19;;;;;;;15.50;7.80;;;;;;;2.61;68.23;98789.24;219942;1271;22579;-69
2022/01/16 14:45:46;;;;;;;12.80;6.90;;;;;;;2.38;68.83;98799.63;219702;1271;22556;-69
2022/01/16 14:58:46;;;;;;;15.50;8.10;;;;;;;2.07;69.92;98802.33;219552;1271;24336;-68
2022/01/16 15:04:12;;;;;;;;;;;;;;;;;;;;;
2022/01/16 15:11:00;;;;;;;13.70;7.50;;;;;;;1.80;70.96;98815.16;219762;1271;22641;-73
2022/01/16 15:16:26;;;;;;;15.90;7.40;;;;;;;1.69;71.37;98815.55;219862;1271;22607;-70
2022/01/16 15:21:37;;;;;;;17.00;8.90;;;;;;;1.60;71.51;98817.40;219826;1271;25394;-69
2022/01/16 15:27:04;;;;;;;16.90;7.70;;;;;;;1.51;72.07;98814.41;220018;1271;25248;-70
2022/01/16 15:32:49;;;;;;;19.60;8.90;;;;;;;1.45;72.50;98809.27;219950;1271;22547;-71
2022/01/16 15:39:05;;;;;;;;;;;;;;;;;;;;;
2022/01/16 15:44:39;;;;;;;17.10;8.40;;;;;;;1.27;73.07;98814.51;219463;1271;24255;-69
2022/01/16 15:55:38;;;;;;;18.50;8.60;;;;;;;1.13;73.36;98847.72;219876;1271;22700;-70
2022/01/16 16:01:11;;;;;;;17.30;8.90;;;;;;;1.05;73.78;98847.95;219712;1271;22577;-69
2022/01/16 16:06:37;;;;;;;17.30;8.60;;;;;;;0.99;73.86;98846.73;220126;1271;22557;-70
2022/01/16 16:12:13;;;;;;;;;;;;;;;;;;;;;
2022/01/16 16:18:08;;;;;;;16.70;8.30;;;;;;;0.83;74.85;98832.81;219297;1271;22573;-70
2022/01/16 16:23:24;;;;;;;18.30;9.20;;;;;;;0.81;75.12;98827.69;220359;1271;22573;-69
2022/01/16 16:28:34;;;;;;;21.40;10.60;;;;;;;0.81;75.28;98840.14;219919;1271;22567;-68
2022/01/16 16:34:24;;;;;;;17.20;9.40;;;;;;;0.81;75.45;98851.90;220046;1270;22544;-69
2022/01/16 16:39:58;;;;;;;17.80;10.10;;;;;;;0.80;75.51;98852.92;221139;1271;23222;-69
2022/01/16 16:45:42;;;;;;;;;;;;;;;;;;;;;
2022/01/16 16:51:16;;;;;;;16.30;9.20;;;;;;;0.81;75.74;98855.27;220452;1271;22566;-70
2022/01/16 16:56:45;;;;;;;18.50;9.70;;;;;;;0.78;75.74;98849.84;219935;1271;22556;-71
2022/01/16 17:02:04;;;;;;;16.80;9.10;;;;;;;0.73;75.56;98849.41;219767;1271;22817;-68
2022/01/16 17:07:32;;;;;;;16.80;9.10;;;;;;;0.67;75.88;98858.90;219829;1271;22685;-70
2022/01/16 17:12:41;;;;;;;19.60;9.90;;;;;;;0.59;75.79;98868.16;219884;1271;22656;-70
2022/01/16 17:18:06;;;;;;;20.20;9.90;;;;;;;0.51;76.26;98889.73;219911;1271;26368;-69
2022/01/16 17:23:29;;;;;;;19.50;9.50;;;;;;;0.46;75.93;98892.59;219775;1271;25375;-70
2022/01/16 17:29:46;;;;;;;16.50;9.20;;;;;;;0.39;76.45;98893.95;220117;1271;22558;-70
2022/01/16 17:35:14;;;;;;;18.60;10.00;;;;;;;0.31;76.85;98901.17;220100;1271;22541;-69
2022/01/16 17:40:29;;;;;;;17.80;9.50;;;;;;;0.24;76.75;98909.12;219993;1271;25258;-69
2022/01/16 17:45:59;;;;;;;21.20;9.80;;;;;;;0.14;76.99;98917.63;220093;1271;22707;-71
2022/01/16 17:51:01;;;;;;;20.60;10.40;;;;;;;0.05;77.18;98927.52;219920;1271;22910;-70
2022/01/16 17:56:04;;;;;;;25.20;10.20;;;;;;;-0.04;77.20;98938.86;219902;1271;22557;-72
2022/01/16 18:01:37;;;;;;;20.90;10.60;;;;;;;-0.16;77.37;98944.77;219940;1271;22563;-70
2022/01/16 18:06:43;;;;;;;17.40;10.10;;;;;;;-0.25;78.01;98946.78;219844;1271;22549;-70
2022/01/16 18:11:51;;;;;;;22.00;10.30;;;;;;;-0.35;78.08;98954.95;219914;1271;23469;-69
2022/01/16 18:17:36;;;;;;;22.80;10.80;;;;;;;-0.43;78.29;98960.19;219353;1273;22790;-70
2022/01/16 18:22:52;;;;;;;23.80;12.60;;;;;;;-0.50;78.72;98966.80;219929;1271;22579;-70
2022/01/16 18:27:59;;;;;;;20.80;11.10;;;;;;;-0.57;79.11;98967.63;219674;1271;22590;-71
2022/01/16 18:33:05;;;;;;;24.60;13.00;;;;;;;-0.58;79.54;98967.22;220948;1271;25534;-69
2022/01/16 18:38:16;;;;;;;24.60;11.60;;;;;;;-0.51;79.55;98971.73;220113;1271;22558;-70
2022/01/16 18:44:07;;;;;;;27.40;13.90;;;;;;;-0.36;80.02;98965.48;219877;1271;24174;-69
2022/01/16 18:50:00;;;;;;;26.10;12.20;;;;;;;-0.21;80.03;98965.88;220064;1271;22726;-70
2022/01/16 18:56:01;;;;;;;27.10;13.00;;;;;;;-0.10;80.29;98968.40;219737;1270;25319;-69
2022/01/16 19:07:27;;;;;;;25.30;13.20;;;;;;;0.06;80.04;98978.45;220115;1270;22671;-69
2022/01/16 19:12:55;;;;;;;29.00;14.60;;;;;;;0.11;79.76;98981.66;220027;1271;22602;-69
2022/01/16 19:18:34;;;;;;;28.10;16.10;;;;;;;0.13;79.75;98979.24;219853;1271;22540;-69
2022/01/16 19:24:09;;;;;;;28.40;15.10;;;;;;;0.16;80.04;98977.28;220032;1271;22556;-69
2022/01/16 19:29:37;;;;;;;;;;;;;;;;;;;;;
2022/01/16 19:35:10;;;;;;;34.20;16.00;;;;;;;0.24;79.58;98972.89;219847;1270;22569;-68
2022/01/16 19:40:46;;;;;;;29.90;15.70;;;;;;;0.27;79.90;98980.64;219931;1270;22598;-70
2022/01/16 19:46:03;;;;;;;28.90;15.80;;;;;;;0.31;79.81;98988.19;221199;1271;22566;-70
2022/01/16 19:51:26;;;;;;;34.10;16.40;;;;;;;0.30;79.90;98990.58;220153;1271;25363;-69
2022/01/16 19:56:47;;;;;;;33.80;15.90;;;;;;;0.30;79.96;98987.58;220064;1271;25459;-69
2022/01/16 20:02:58;;;;;;;29.50;16.30;;;;;;;0.31;80.01;98986.92;220092;1270;25755;-71
2022/01/16 20:08:13;;;;;;;33.60;17.00;;;;;;;0.30;80.07;98984.95;220013;1271;24263;-69
2022/01/16 20:13:16;;;;;;;34.90;17.20;;;;;;;0.28;80.25;98992.45;220048;1271;22582;-70
2022/01/16 20:18:21;;;;;;;34.20;17.70;;;;;;;0.27;80.37;98998.39;219871;1271;209532;-70
2022/01/16 20:23:29;;;;;;;36.90;17.40;;;;;;;0.25;80.60;99000.11;221094;1271;22723;-70
2022/01/16 20:28:42;;;;;;;43.80;20.10;;;;;;;0.24;80.76;98992.55;220994;1271;22549;-69
2022/01/16 20:34:06;;;;;;;42.40;20.20;;;;;;;0.25;80.84;98988.40;220403;1271;24132;-70
2022/01/16 20:39:20;;;;;;;42.40;20.40;;;;;;;0.23;80.99;98990.23;220230;1271;22568;-69
2022/01/16 20:44:47;;;;;;;38.10;20.40;;;;;;;0.14;81.36;98992.08;219993;1271;24453;-69
2022/01/16 20:49:55;;;;;;;40.30;19.10;;;;;;;0.07;81.99;98989.83;220941;1271;22741;-70
2022/01/16 20:54:58;;;;;;;39.70;18.30;;;;;;;-0.01;82.50;98989.97;221092;1271;22802;-69
2022/01/16 21:00:05;;;;;;;41.90;19.30;;;;;;;-0.08;82.88;98994.20;219955;1271;24267;-69
2022/01/16 21:05:23;;;;;;;37.20;17.00;;;;;;;-0.14;83.29;98985.16;220065;1271;22542;-70
2022/01/16 21:16:17;;;;;;;33.70;17.30;;;;;;;-0.19;83.79;98990.91;220846;1271;22704;-69
2022/01/16 21:21:43;;;;;;;38.50;18.50;;;;;;;-0.18;83.92;98986.97;219874;1271;22557;-69
2022/01/16 21:27:22;;;;;;;39.20;19.20;;;;;;;-0.19;83.89;98978.84;219833;1271;24417;-70
2022/01/16 21:32:53;;;;;;;39.30;18.90;;;;;;;-0.20;84.32;98980.91;220342;1271;22562;-69
2022/01/16 21:38:31;;;;;;;34.70;17.80;;;;;;;-0.23;83.93;98979.62;220046;1271;24288;-70
2022/01/16 21:44:57;;;;;;;;;;;;;;;;;;;;;
2022/01/16 21:50:32;;;;;;;;;;;;;;;;;;;;;
2022/01/16 21:55:46;;;;;;;35.60;16.80;;;;;;;-0.24;84.72;98963.23;219980;1271;23060;-70
2022/01/16 22:01:29;;;;;;;33.90;16.10;;;;;;;-0.24;84.83;98963.14;220373;1271;25524;-69
2022/01/16 22:07:05;;;;;;;;;;;;;;;;;;;;;
2022/01/16 22:12:40;;;;;;;35.80;16.20;;;;;;;-0.18;84.99;98952.61;220215;1271;22783;-69
2022/01/16 22:18:01;;;;;;;30.80;16.60;;;;;;;-0.15;84.75;98960.93;220120;1271;24253;-68
2022/01/16 22:23:19;;;;;;;28.60;15.00;;;;;;;-0.12;84.66;98966.52;220007;1270;22811;-70
2022/01/16 22:28:25;;;;;;;28.00;14.20;;;;;;;-0.10;84.70;98964.35;219872;1271;24818;-70
2022/01/16 22:34:12;;;;;;;23.80;12.50;;;;;;;-0.06;84.97;98969.34;219972;1271;24391;-70
2022/01/16 22:40:01;;;;;;;24.40;12.60;;;;;;;-0.02;85.27;98974.30;219823;1271;24292;-69
2022/01/16 22:45:04;;;;;;;22.40;11.70;;;;;;;0.02;84.90;98968.30;220178;1271;25260;-69
2022/01/16 22:50:37;;;;;;;19.10;10.60;;;;;;;0.07;84.51;98976.87;220051;1271;22538;-71
2022/01/16 22:56:44;;;;;;;18.60;9.60;;;;;;;0.11;84.76;98979.87;219845;1271;22798;-69
2022/01/16 23:02:19;;;;;;;16.80;9.80;;;;;;;0.14;84.65;98968.41;219531;1271;22560;-69
2022/01/16 23:14:29;;;;;;;;;;;;;;;;;;;;;
2022/01/16 23:19:51;;;;;;;15.10;8.70;;;;;;;0.10;85.44;98939.21;219392;1271;22748;-69
2022/01/16 23:31:27;;;;;;;14.90;7.60;;;;;;;0.00;86.03;98945.59;220021;1271;22597;-69
2022/01/16 23:36:52;;;;;;;12.40;7.30;;;;;;;0.01;86.15;98939.70;219983;1271;24239;-70
2022/01/16 23:42:31;;;;;;;;;;;;;;;;;;;;;
2022/01/16 23:48:20;;;;;;;10.70;6.70;;;;;;;0.08;86.50;98929.84;219834;1271;22844;-68
2022/01/16 23:53:40;;;;;;;;;;;;;;;;;;;;;
